Nimbus Weather Services

Informe meteorológico para Carrasco, Uruguay. El informe se hizo hace 19 minutos, a las 15:00 UTC. El viento soplaba a una velocidad de 3.6 m/s (8.1 millas por hora) del noroeste (310°), variando entre oeste (280) y norte (350). La temperatura era 20 °C (68 °F), con un punto de rocío de 4 °C (39 °F). La presión atmosférica era 1018 hPa (30.06 inHg). Había una humedad relativa del 34.8%. Cielo: sin nubes por debajo de 1500 metros (5000 pies) y sin presencia de cumulusnimbos. En aquel momento la visibilidad global era mayor de 10 kilómetros (6.2 millas).

La clave METAR es: SUMU 201500Z 31007KT 280V350 CAVOK 20/04 Q1018 NOSIG

Consulta realizada el Jueves 20 de Septiembre de 2018 12:18. Tiempo usado para generar esta pagina:5,809 ms.